createdAt,value
2016-06-04T00:00:51.560Z,0
2016-06-04T00:01:51.594Z,0
2016-06-04T00:02:51.612Z,0
2016-06-04T00:03:51.741Z,0
2016-06-04T00:04:51.664Z,0
2016-06-04T00:05:51.683Z,0
2016-06-04T00:06:51.811Z,0
2016-06-04T00:07:51.844Z,0
2016-06-04T00:08:51.879Z,0
2016-06-04T00:09:52.007Z,0
2016-06-04T00:10:51.696Z,0
2016-06-04T00:11:52.011Z,0
2016-06-04T00:12:51.905Z,0
2016-06-04T00:13:51.954Z,0
2016-06-04T00:14:51.941Z,0
2016-06-04T00:15:51.818Z,0
2016-06-04T00:16:52.103Z,0
2016-06-04T00:17:52.090Z,0
2016-06-04T00:18:52.061Z,0
2016-06-04T00:19:52.174Z,0
2016-06-04T00:20:52.192Z,0
2016-06-04T00:21:52.351Z,0
2016-06-04T00:22:52.228Z,0
2016-06-04T00:23:52.200Z,0
2016-06-04T00:24:52.250Z,0
2016-06-04T00:25:52.628Z,0
2016-06-04T00:26:52.333Z,0
2016-06-04T00:27:52.304Z,0
2016-06-04T00:28:52.339Z,0
2016-06-04T00:29:52.450Z,0
2016-06-04T00:30:52.406Z,0
2016-06-04T00:31:52.486Z,0
2016-06-04T00:32:52.458Z,0
2016-06-04T00:33:52.461Z,0
2016-06-04T00:34:52.574Z,0
2016-06-04T00:35:52.638Z,0
2016-06-04T00:36:52.547Z,0
2016-06-04T00:37:52.597Z,0
2016-06-04T00:38:52.678Z,0
2016-06-04T00:39:52.821Z,0
2016-06-04T00:40:52.699Z,0
2016-06-04T00:41:53.233Z,0
2016-06-04T00:42:52.563Z,0
2016-06-04T00:43:52.801Z,0
2016-06-04T00:44:52.615Z,0
2016-06-04T00:45:52.885Z,0
2016-06-04T00:46:52.824Z,0
2016-06-04T00:47:52.859Z,0
2016-06-04T00:48:52.876Z,0
2016-06-04T00:49:52.910Z,0
2016-06-04T00:50:52.929Z,0
2016-06-04T00:51:52.994Z,0
2016-06-04T00:52:52.982Z,0
2016-06-04T00:53:53.000Z,0
2016-06-04T00:54:53.111Z,0
2016-06-04T00:55:52.911Z,0
2016-06-04T00:56:53.304Z,0
2016-06-04T00:57:53.214Z,0
2016-06-04T00:58:53.353Z,0
2016-06-04T00:59:53.233Z,0
2016-06-04T01:00:53.284Z,0
2016-06-04T01:01:53.337Z,0
2016-06-04T01:02:53.466Z,0
2016-06-04T01:03:53.448Z,0
2016-06-04T01:04:53.416Z,0
2016-06-04T01:05:53.618Z,0
2016-06-04T01:06:53.710Z,0
2016-06-04T01:07:53.616Z,0
2016-06-04T01:08:53.752Z,0
2016-06-04T01:09:53.775Z,0
2016-06-04T01:10:54.266Z,0
2016-06-04T01:11:53.585Z,0
2016-06-04T01:12:53.858Z,0
2016-06-04T01:13:53.802Z,0
2016-06-04T01:14:53.821Z,0
2016-06-04T01:15:53.856Z,0
2016-06-04T01:16:53.892Z,0
2016-06-04T01:17:53.928Z,0
2016-06-04T01:18:54.009Z,0
2016-06-04T01:19:54.043Z,0
2016-06-04T01:20:53.985Z,0
2016-06-04T01:21:54.003Z,0
2016-06-04T01:22:54.116Z,0
2016-06-04T01:23:54.150Z,0
2016-06-04T01:24:54.044Z,0
2016-06-04T01:25:54.984Z,0
2016-06-04T01:26:54.253Z,0
2016-06-04T01:27:54.178Z,0
2016-06-04T01:28:54.212Z,0
2016-06-04T01:29:54.231Z,0
2016-06-04T01:30:54.359Z,0
2016-06-04T01:31:54.361Z,0
2016-06-04T01:32:54.317Z,0
2016-06-04T01:33:54.334Z,0
2016-06-04T01:34:54.448Z,0
2016-06-04T01:35:54.387Z,0
2016-06-04T01:36:54.515Z,0
2016-06-04T01:37:54.456Z,0
2016-06-04T01:38:54.598Z,0
2016-06-04T01:39:54.523Z,0
2016-06-04T01:40:54.573Z,0
2016-06-04T01:41:54.559Z,0
2016-06-04T01:42:54.703Z,0
2016-06-04T01:43:54.690Z,0
2016-06-04T01:44:54.708Z,0
2016-06-04T01:45:54.649Z,0
2016-06-04T01:46:54.683Z,0
2016-06-04T01:47:54.795Z,0
2016-06-04T01:48:54.735Z,0
2016-06-04T01:49:54.769Z,0
2016-06-04T01:50:54.787Z,0
2016-06-04T01:51:54.821Z,0
2016-06-04T01:52:54.871Z,0
2016-06-04T01:53:54.888Z,0
2016-06-04T01:54:55.016Z,0
2016-06-04T01:55:55.176Z,0
2016-06-04T01:56:55.663Z,0
2016-06-04T01:57:54.978Z,0
2016-06-04T01:58:54.996Z,0
2016-06-04T01:59:55.029Z,0
2016-06-04T02:00:55.049Z,0
2016-06-04T02:01:55.082Z,0
2016-06-04T02:02:55.100Z,0
2016-06-04T02:03:55.135Z,0
2016-06-04T02:04:55.231Z,0
2016-06-04T02:05:55.186Z,0
2016-06-04T02:06:55.221Z,0
2016-06-04T02:07:55.317Z,0
2016-06-04T02:08:55.413Z,0
2016-06-04T02:09:55.401Z,0
2016-06-04T02:10:55.717Z,0
2016-06-04T02:11:55.343Z,0
2016-06-04T02:12:55.393Z,0
2016-06-04T02:13:55.395Z,0
2016-06-04T02:14:55.523Z,0
2016-06-04T02:15:55.463Z,0
2016-06-04T02:16:55.466Z,0
2016-06-04T02:17:55.500Z,0
2016-06-04T02:18:55.613Z,0
2016-06-04T02:19:55.536Z,0
2016-06-04T02:20:55.571Z,0
2016-06-04T02:21:55.605Z,0
2016-06-04T02:22:55.624Z,0
2016-06-04T02:23:55.752Z,0
2016-06-04T02:24:55.800Z,0
2016-06-04T02:25:55.709Z,0
2016-06-04T02:26:56.259Z,0
2016-06-04T02:27:55.605Z,0
2016-06-04T02:28:55.623Z,0
2016-06-04T02:29:55.813Z,0
2016-06-04T02:30:55.926Z,0
2016-06-04T02:31:55.866Z,0
2016-06-04T02:32:55.915Z,0
2016-06-04T02:33:55.918Z,0
2016-06-04T02:34:56.015Z,4
2016-06-04T02:35:55.971Z,4
2016-06-04T02:36:55.989Z,4
2016-06-04T02:37:56.022Z,0
2016-06-04T02:38:56.135Z,0
2016-06-04T02:39:56.090Z,4
2016-06-04T02:40:56.172Z,4
2016-06-04T02:41:56.221Z,4
2016-06-04T02:42:56.161Z,4
2016-06-04T02:43:56.273Z,4
2016-06-04T02:44:56.198Z,4
2016-06-04T02:45:56.231Z,8
2016-06-04T02:46:56.266Z,8
2016-06-04T02:47:56.283Z,8
2016-06-04T02:48:56.396Z,8
2016-06-04T02:49:56.321Z,12
2016-06-04T02:50:56.355Z,8
2016-06-04T02:51:56.482Z,12
2016-06-04T02:52:56.344Z,12
2016-06-04T02:53:56.535Z,16
2016-06-04T02:54:56.460Z,12
2016-06-04T02:55:57.383Z,16
2016-06-04T02:56:57.136Z,16
2016-06-04T02:57:56.545Z,20
2016-06-04T02:58:56.766Z,20
2016-06-04T02:59:56.598Z,24
2016-06-04T03:00:56.632Z,24
2016-06-04T03:01:56.634Z,24
2016-06-04T03:02:56.668Z,28
2016-06-04T03:03:56.718Z,28
2016-06-04T03:04:56.721Z,28
2016-06-04T03:05:56.739Z,32
2016-06-04T03:06:56.773Z,36
2016-06-04T03:07:56.791Z,40
2016-06-04T03:08:56.918Z,40
2016-06-04T03:09:56.953Z,44
2016-06-04T03:10:57.158Z,44
2016-06-04T03:11:57.380Z,48
2016-06-04T03:12:56.929Z,52
2016-06-04T03:13:56.964Z,52
2016-06-04T03:14:56.981Z,56
2016-06-04T03:15:57.000Z,60
2016-06-04T03:16:57.128Z,60
2016-06-04T03:17:57.130Z,64
2016-06-04T03:18:57.275Z,68
2016-06-04T03:19:57.105Z,72
2016-06-04T03:20:57.122Z,72
2016-06-04T03:21:57.158Z,72
2016-06-04T03:22:57.394Z,80
2016-06-04T03:23:57.225Z,80
2016-06-04T03:24:57.243Z,84
2016-06-04T03:25:57.371Z,88
2016-06-04T03:26:57.311Z,88
2016-06-04T03:27:57.408Z,92
2016-06-04T03:28:57.332Z,96
2016-06-04T03:29:57.460Z,100
2016-06-04T03:30:57.478Z,104
2016-06-04T03:31:57.419Z,104
2016-06-04T03:32:57.514Z,108
2016-06-04T03:33:57.549Z,112
2016-06-04T03:34:57.488Z,116
2016-06-04T03:35:57.585Z,116
2016-06-04T03:36:57.556Z,120
2016-06-04T03:37:57.575Z,120
2016-06-04T03:38:57.624Z,128
2016-06-04T03:39:57.627Z,128
2016-06-04T03:40:58.458Z,136
2016-06-04T03:41:57.679Z,140
2016-06-04T03:42:57.681Z,136
2016-06-04T03:43:57.716Z,140
2016-06-04T03:44:57.750Z,144
2016-06-04T03:45:57.878Z,148
2016-06-04T03:46:57.896Z,152
2016-06-04T03:47:57.945Z,156
2016-06-04T03:48:57.855Z,160
2016-06-04T03:49:57.966Z,160
2016-06-04T03:50:58.000Z,164
2016-06-04T03:51:58.002Z,164
2016-06-04T03:52:57.959Z,172
2016-06-04T03:53:57.977Z,172
2016-06-04T03:54:58.214Z,176
2016-06-04T03:55:58.794Z,180
2016-06-04T03:56:57.985Z,180
2016-06-04T03:57:58.082Z,184
2016-06-04T03:58:58.178Z,184
2016-06-04T03:59:58.321Z,188
2016-06-04T04:00:58.168Z,192
2016-06-04T04:01:58.374Z,196
2016-06-04T04:02:58.330Z,200
2016-06-04T04:03:58.348Z,204
2016-06-04T04:04:58.335Z,204
2016-06-04T04:05:58.463Z,208
2016-06-04T04:06:58.371Z,212
2016-06-04T04:07:58.171Z,212
2016-06-04T04:08:58.361Z,216
2016-06-04T04:09:58.379Z,216
2016-06-04T04:10:59.023Z,220
2016-06-04T04:11:58.448Z,220
2016-06-04T04:12:58.465Z,224
2016-06-04T04:13:58.484Z,224
2016-06-04T04:14:58.503Z,224
2016-06-04T04:15:58.536Z,224
2016-06-04T04:16:58.555Z,228
2016-06-04T04:17:58.589Z,228
2016-06-04T04:18:58.606Z,232
2016-06-04T04:19:58.641Z,236
2016-06-04T04:20:58.675Z,240
2016-06-04T04:21:58.709Z,240
2016-06-04T04:22:58.727Z,240
2016-06-04T04:23:58.761Z,244
2016-06-04T04:24:58.842Z,244
2016-06-04T04:25:58.814Z,252
2016-06-04T04:26:58.847Z,252
2016-06-04T04:27:58.850Z,252
2016-06-04T04:28:58.884Z,256
2016-06-04T04:29:58.902Z,256
2016-06-04T04:30:58.920Z,260
2016-06-04T04:31:58.938Z,260
2016-06-04T04:32:58.816Z,264
2016-06-04T04:33:58.991Z,268
2016-06-04T04:34:59.024Z,268
2016-06-04T04:35:59.043Z,272
2016-06-04T04:36:59.109Z,272
2016-06-04T04:37:59.095Z,276
2016-06-04T04:38:59.146Z,280
2016-06-04T04:39:59.148Z,280
2016-06-04T04:40:59.198Z,280
2016-06-04T04:41:59.075Z,288
2016-06-04T04:42:59.218Z,288
2016-06-04T04:43:59.253Z,292
2016-06-04T04:44:59.287Z,296
2016-06-04T04:45:59.304Z,300
2016-06-04T04:46:59.339Z,300
2016-06-04T04:47:59.372Z,304
2016-06-04T04:48:59.359Z,304
2016-06-04T04:49:59.394Z,304
2016-06-04T04:50:59.428Z,308
2016-06-04T04:51:59.461Z,308
2016-06-04T04:52:59.339Z,304
2016-06-04T04:53:59.514Z,308
2016-06-04T04:54:59.533Z,312
2016-06-04T04:56:00.316Z,316
2016-06-04T04:56:59.693Z,312
2016-06-04T04:57:59.619Z,316
2016-06-04T04:58:59.652Z,316
2016-06-04T04:59:59.654Z,320
2016-06-04T05:00:59.688Z,320
2016-06-04T05:01:59.722Z,320
2016-06-04T05:02:59.819Z,320
2016-06-04T05:03:59.744Z,324
2016-06-04T05:04:59.762Z,328
2016-06-04T05:05:59.796Z,328
2016-06-04T05:06:59.830Z,332
2016-06-04T05:07:59.863Z,336
2016-06-04T05:08:59.882Z,340
2016-06-04T05:09:59.916Z,336
2016-06-04T05:11:00.012Z,340
2016-06-04T05:12:01.499Z,344
2016-06-04T05:12:59.971Z,340
2016-06-04T05:14:00.021Z,344
2016-06-04T05:15:00.023Z,340
2016-06-04T05:16:00.056Z,344
2016-06-04T05:17:00.092Z,340
2016-06-04T05:18:00.359Z,344
2016-06-04T05:19:00.128Z,344
2016-06-04T05:20:00.209Z,348
2016-06-04T05:21:00.181Z,352
2016-06-04T05:22:00.214Z,356
2016-06-04T05:23:00.232Z,356
2016-06-04T05:24:00.251Z,356
2016-06-04T05:25:00.284Z,356
2016-06-04T05:26:00.975Z,360
2016-06-04T05:27:00.946Z,360
2016-06-04T05:28:00.433Z,364
2016-06-04T05:29:00.389Z,364
2016-06-04T05:30:00.407Z,364
2016-06-04T05:31:00.441Z,364
2016-06-04T05:32:00.553Z,368
2016-06-04T05:33:00.603Z,368
2016-06-04T05:34:00.512Z,368
2016-06-04T05:35:00.608Z,372
2016-06-04T05:36:00.579Z,372
2016-06-04T05:37:00.583Z,376
2016-06-04T05:38:00.632Z,380
2016-06-04T05:39:00.635Z,380
2016-06-04T05:40:00.513Z,380
2016-06-04T05:41:02.077Z,384
2016-06-04T05:42:00.737Z,388
2016-06-04T05:43:00.739Z,392
2016-06-04T05:44:00.773Z,392
2016-06-04T05:45:00.792Z,388
2016-06-04T05:46:00.809Z,388
2016-06-04T05:47:00.828Z,392
2016-06-04T05:48:00.862Z,392
2016-06-04T05:49:00.881Z,396
2016-06-04T05:50:00.914Z,396
2016-06-04T05:51:00.933Z,400
2016-06-04T05:52:00.967Z,400
2016-06-04T05:53:00.984Z,408
2016-06-04T05:54:01.159Z,404
2016-06-04T05:55:01.037Z,404
2016-06-04T05:56:01.321Z,396
2016-06-04T05:57:01.808Z,392
2016-06-04T05:58:01.202Z,388
2016-06-04T05:59:01.173Z,388
2016-06-04T06:00:01.175Z,388
2016-06-04T06:01:01.194Z,388
2016-06-04T06:02:01.243Z,388
2016-06-04T06:03:01.091Z,388
2016-06-04T06:04:01.264Z,392
2016-06-04T06:05:01.299Z,392
2016-06-04T06:06:01.426Z,392
2016-06-04T06:07:01.476Z,400
2016-06-04T06:08:01.368Z,416
2016-06-04T06:09:01.481Z,428
2016-06-04T06:10:01.452Z,440
2016-06-04T06:11:01.940Z,448
2016-06-04T06:12:02.035Z,448
2016-06-04T06:13:01.492Z,452
2016-06-04T06:14:01.510Z,456
2016-06-04T06:15:01.544Z,460
2016-06-04T06:16:01.562Z,456
2016-06-04T06:17:01.596Z,460
2016-06-04T06:18:01.459Z,460
2016-06-04T06:19:01.758Z,460
2016-06-04T06:20:01.667Z,456
2016-06-04T06:21:01.701Z,452
2016-06-04T06:22:01.781Z,448
2016-06-04T06:23:01.862Z,440
2016-06-04T06:24:01.771Z,436
2016-06-04T06:25:01.914Z,432
2016-06-04T06:26:02.481Z,432
2016-06-04T06:27:01.967Z,440
2016-06-04T06:28:01.875Z,444
2016-06-04T06:29:02.050Z,440
2016-06-04T06:30:01.944Z,428
2016-06-04T06:31:02.071Z,424
2016-06-04T06:32:02.011Z,420
2016-06-04T06:33:02.014Z,420
2016-06-04T06:34:02.127Z,420
2016-06-04T06:35:02.160Z,424
2016-06-04T06:36:02.241Z,432
2016-06-04T06:37:02.197Z,436
2016-06-04T06:38:02.230Z,444
2016-06-04T06:39:02.202Z,464
2016-06-04T06:40:02.190Z,508
2016-06-04T06:41:03.285Z,564
2016-06-04T06:42:02.898Z,636
2016-06-04T06:43:02.104Z,696
2016-06-04T06:44:02.293Z,744
2016-06-04T06:45:02.328Z,752
2016-06-04T06:46:02.331Z,736
2016-06-04T06:47:02.396Z,708
2016-06-04T06:48:02.398Z,680
2016-06-04T06:49:02.432Z,644
2016-06-04T06:50:02.450Z,608
2016-06-04T06:51:02.470Z,576
2016-06-04T06:52:02.597Z,552
2016-06-04T06:53:02.615Z,524
2016-06-04T06:54:02.633Z,488
2016-06-04T06:55:02.683Z,468
2016-06-04T06:56:02.608Z,456
2016-06-04T06:57:03.688Z,456
2016-06-04T06:58:02.769Z,460
2016-06-04T06:59:02.787Z,476
2016-06-04T07:00:02.806Z,504
2016-06-04T07:01:02.809Z,532
2016-06-04T07:02:02.858Z,556
2016-06-04T07:03:02.783Z,564
2016-06-04T07:04:02.816Z,580
2016-06-04T07:05:02.944Z,600
2016-06-04T07:06:02.697Z,628
2016-06-04T07:07:03.278Z,660
2016-06-04T07:08:03.015Z,676
2016-06-04T07:09:03.267Z,708
2016-06-04T07:10:02.957Z,744
2016-06-04T07:11:03.554Z,784
2016-06-04T07:12:03.212Z,808
2016-06-04T07:13:03.121Z,836
2016-06-04T07:14:03.094Z,880
2016-06-04T07:15:03.205Z,932
2016-06-04T07:16:03.223Z,976
2016-06-04T07:17:03.273Z,1000
2016-06-04T07:18:03.182Z,1028
2016-06-04T07:19:03.279Z,1036
2016-06-04T07:20:03.328Z,1048
2016-06-04T07:21:03.346Z,1060
2016-06-04T07:22:03.303Z,1072
2016-06-04T07:23:03.306Z,1104
2016-06-04T07:24:03.401Z,1104
2016-06-04T07:25:03.466Z,1100
2016-06-04T07:26:04.064Z,1076
2016-06-04T07:27:04.222Z,1020
2016-06-04T07:28:03.631Z,932
2016-06-04T07:29:03.493Z,880
2016-06-04T07:30:03.511Z,852
2016-06-04T07:31:03.561Z,836
2016-06-04T07:32:03.563Z,808
2016-06-04T07:33:03.722Z,752
2016-06-04T07:34:03.616Z,720
2016-06-04T07:35:03.650Z,680
2016-06-04T07:36:03.761Z,660
2016-06-04T07:37:03.686Z,648
2016-06-04T07:38:03.846Z,668
2016-06-04T07:39:03.755Z,668
2016-06-04T07:40:03.772Z,660
2016-06-04T07:41:05.354Z,652
2016-06-04T07:42:04.091Z,644
2016-06-04T07:43:03.860Z,628
2016-06-04T07:44:03.877Z,616
2016-06-04T07:45:03.910Z,620
2016-06-04T07:46:03.773Z,628
2016-06-04T07:47:03.979Z,636
2016-06-04T07:48:03.998Z,640
2016-06-04T07:49:04.015Z,644
2016-06-04T07:50:04.049Z,648
2016-06-04T07:51:04.068Z,712
2016-06-04T07:52:04.179Z,668
2016-06-04T07:53:04.120Z,660
2016-06-04T07:54:04.153Z,732
2016-06-04T07:55:04.188Z,756
2016-06-04T07:56:04.925Z,744
2016-06-04T07:57:04.240Z,796
2016-06-04T07:58:04.275Z,780
2016-06-04T07:59:04.292Z,896
2016-06-04T08:00:04.311Z,1412
2016-06-04T08:01:04.345Z,1988
2016-06-04T08:02:04.488Z,1724
2016-06-04T08:03:04.491Z,1520
2016-06-04T08:04:04.525Z,1740
2016-06-04T08:05:04.636Z,1332
2016-06-04T08:06:04.577Z,1056
2016-06-04T08:07:04.705Z,864
2016-06-04T08:08:04.630Z,900
2016-06-04T08:09:04.725Z,1112
2016-06-04T08:10:04.682Z,1384
2016-06-04T08:11:04.715Z,1296
2016-06-04T08:12:04.749Z,1092
2016-06-04T08:13:05.799Z,956
2016-06-04T08:14:05.285Z,924
2016-06-04T08:15:04.852Z,1184
2016-06-04T08:16:04.760Z,1152
2016-06-04T08:17:04.794Z,1200
2016-06-04T08:18:04.828Z,1240
2016-06-04T08:19:04.846Z,1184
2016-06-04T08:20:04.974Z,1272
2016-06-04T08:21:04.898Z,1116
2016-06-04T08:22:04.964Z,1016
2016-06-04T08:23:04.903Z,1116
2016-06-04T08:24:04.688Z,1676
2016-06-04T08:25:05.128Z,1656
2016-06-04T08:26:05.193Z,1312
2016-06-04T08:27:05.774Z,1428
2016-06-04T08:28:05.136Z,1292
2016-06-04T08:29:05.139Z,964
2016-06-04T08:30:05.156Z,1616
2016-06-04T08:31:05.191Z,1300
2016-06-04T08:32:05.225Z,1092
2016-06-04T08:33:05.258Z,844
2016-06-04T08:34:05.293Z,1404
2016-06-04T08:35:05.311Z,1892
2016-06-04T08:36:05.360Z,1768
2016-06-04T08:37:05.394Z,1512
2016-06-04T08:38:05.850Z,1756
2016-06-04T08:39:05.618Z,1564
2016-06-04T08:40:05.558Z,1280
2016-06-04T08:41:05.436Z,1180
2016-06-04T08:42:06.298Z,1144
2016-06-04T08:43:05.535Z,1164
2016-06-04T08:44:05.664Z,1184
2016-06-04T08:45:05.697Z,1496
2016-06-04T08:46:05.732Z,1520
2016-06-04T08:47:05.749Z,1604
2016-06-04T08:48:05.784Z,2020
2016-06-04T08:49:05.646Z,2412
2016-06-04T08:50:05.835Z,2504
2016-06-04T08:51:05.885Z,2536
2016-06-04T08:52:05.904Z,2664
2016-06-04T08:53:05.859Z,2544
2016-06-04T08:54:05.659Z,2216
2016-06-04T08:55:06.006Z,2164
2016-06-04T08:56:06.055Z,2192
2016-06-04T08:57:05.964Z,2032
2016-06-04T08:58:06.170Z,1816
2016-06-04T08:59:06.188Z,1680
2016-06-04T09:00:06.175Z,1760
2016-06-04T09:01:06.194Z,2064
2016-06-04T09:02:06.197Z,2020
2016-06-04T09:03:06.214Z,1744
2016-06-04T09:04:06.358Z,1520
2016-06-04T09:05:06.361Z,1716
2016-06-04T09:06:06.364Z,2216
2016-06-04T09:07:06.381Z,2420
2016-06-04T09:08:06.291Z,2236
2016-06-04T09:09:06.403Z,2236
2016-06-04T09:10:06.389Z,2220
2016-06-04T09:11:06.392Z,2224
2016-06-04T09:12:07.177Z,2024
2016-06-04T09:13:06.569Z,1664
2016-06-04T09:14:06.479Z,1528
2016-06-04T09:15:06.512Z,1516
2016-06-04T09:16:06.563Z,1600
2016-06-04T09:17:06.596Z,1820
2016-06-04T09:18:06.567Z,2028
2016-06-04T09:19:06.633Z,2260
2016-06-04T09:20:06.682Z,2372
2016-06-04T09:21:06.701Z,2408
2016-06-04T09:22:06.735Z,2472
2016-06-04T09:23:06.768Z,2372
2016-06-04T09:24:06.787Z,1924
2016-06-04T09:25:06.821Z,1756
2016-06-04T09:26:06.854Z,1876
2016-06-04T09:27:06.889Z,2252
2016-06-04T09:28:07.031Z,2304
2016-06-04T09:29:07.160Z,2212
2016-06-04T09:30:06.975Z,2112
2016-06-04T09:31:07.024Z,2264
2016-06-04T09:32:07.230Z,2464
2016-06-04T09:33:07.249Z,2844
2016-06-04T09:34:07.142Z,2724
2016-06-04T09:35:07.254Z,2820
2016-06-04T09:36:07.194Z,2948
2016-06-04T09:37:07.212Z,3060
2016-06-04T09:38:07.262Z,2900
2016-06-04T09:39:07.311Z,2792
2016-06-04T09:40:07.408Z,2480
2016-06-04T09:41:07.427Z,2296
2016-06-04T09:42:07.461Z,2260
2016-06-04T09:43:07.807Z,2436
2016-06-04T09:44:08.606Z,2432
2016-06-04T09:45:07.530Z,2368
2016-06-04T09:46:07.643Z,2480
2016-06-04T09:47:07.614Z,2604
2016-06-04T09:48:07.648Z,2248
2016-06-04T09:49:07.713Z,2272
2016-06-04T09:50:07.576Z,2204
2016-06-04T09:51:07.750Z,2084
2016-06-04T09:52:07.784Z,1680
2016-06-04T09:53:07.833Z,1932
2016-06-04T09:54:07.821Z,2140
2016-06-04T09:55:07.839Z,2260
2016-06-04T09:56:07.842Z,2288
2016-06-04T09:57:07.859Z,2108
2016-06-04T09:58:07.769Z,2076
2016-06-04T09:59:08.131Z,1988
2016-06-04T10:00:07.962Z,1812
2016-06-04T10:01:08.167Z,1724
2016-06-04T10:02:08.029Z,1756
2016-06-04T10:03:08.064Z,1880
2016-06-04T10:04:08.098Z,1844
2016-06-04T10:05:08.133Z,2148
2016-06-04T10:06:08.195Z,2024
2016-06-04T10:07:08.272Z,1920
2016-06-04T10:08:08.318Z,2008
2016-06-04T10:09:08.380Z,2088
2016-06-04T10:10:08.445Z,2252
2016-06-04T10:11:08.490Z,2148
2016-06-04T10:12:08.518Z,2192
2016-06-04T10:13:09.281Z,2108
2016-06-04T10:14:08.543Z,2040
2016-06-04T10:15:08.646Z,2016
2016-06-04T10:16:08.683Z,2036
2016-06-04T10:17:08.720Z,2168
2016-06-04T10:18:08.788Z,2488
2016-06-04T10:19:08.811Z,2128
2016-06-04T10:20:08.706Z,2536
2016-06-04T10:21:08.788Z,2624
2016-06-04T10:22:08.761Z,2500
2016-06-04T10:23:08.828Z,2868
2016-06-04T10:24:09.161Z,3256
2016-06-04T10:25:09.242Z,3396
2016-06-04T10:26:09.057Z,3180
2016-06-04T10:27:09.374Z,2656
2016-06-04T10:28:10.126Z,1888
2016-06-04T10:29:09.317Z,1788
2016-06-04T10:30:09.366Z,1508
2016-06-04T10:31:09.416Z,1084
2016-06-04T10:32:09.450Z,956
2016-06-04T10:33:09.468Z,904
2016-06-04T10:34:09.502Z,936
2016-06-04T10:35:09.537Z,1024
2016-06-04T10:36:09.585Z,1076
2016-06-04T10:37:09.604Z,1180
2016-06-04T10:38:09.498Z,1408
2016-06-04T10:39:09.704Z,1452
2016-06-04T10:40:09.706Z,1516
2016-06-04T10:41:09.896Z,1796
2016-06-04T10:42:09.884Z,2164
2016-06-04T10:43:09.527Z,2340
2016-06-04T10:44:09.686Z,2244
2016-06-04T10:45:09.548Z,2228
2016-06-04T10:46:09.800Z,2756
2016-06-04T10:47:09.820Z,2456
2016-06-04T10:48:09.806Z,3052
2016-06-04T10:49:09.839Z,2720
2016-06-04T10:50:09.873Z,1668
2016-06-04T10:51:09.908Z,1584
2016-06-04T10:52:09.942Z,1628
2016-06-04T10:53:10.006Z,1672
2016-06-04T10:54:10.041Z,1636
2016-06-04T10:55:10.043Z,1544
2016-06-04T10:56:10.077Z,1444
2016-06-04T10:57:11.846Z,1520
2016-06-04T10:58:11.473Z,1528
2016-06-04T10:59:10.180Z,1384
2016-06-04T11:00:10.229Z,1240
2016-06-04T11:01:10.247Z,1260
2016-06-04T11:02:10.281Z,1328
2016-06-04T11:03:10.331Z,1156
2016-06-04T11:04:10.365Z,1096
2016-06-04T11:05:10.383Z,1068
2016-06-04T11:06:10.463Z,1000
2016-06-04T11:07:10.451Z,1004
2016-06-04T11:08:10.501Z,1060
2016-06-04T11:09:10.534Z,1092
2016-06-04T11:10:10.568Z,1196
2016-06-04T11:11:10.617Z,1368
2016-06-04T11:12:10.637Z,1412
2016-06-04T11:13:11.764Z,1440
2016-06-04T11:14:12.126Z,1464
2016-06-04T11:15:10.863Z,1596
2016-06-04T11:16:10.882Z,1724
2016-06-04T11:17:10.884Z,1804
2016-06-04T11:18:10.887Z,1812
2016-06-04T11:19:10.968Z,1736
2016-06-04T11:20:11.001Z,1688
2016-06-04T11:21:10.848Z,1904
2016-06-04T11:22:11.022Z,1832
2016-06-04T11:23:11.041Z,1768
2016-06-04T11:24:11.059Z,1812
2016-06-04T11:25:11.093Z,1684
2016-06-04T11:26:11.127Z,1824
2016-06-04T11:27:11.755Z,1904
2016-06-04T11:28:11.211Z,1984
2016-06-04T11:29:11.292Z,1780
2016-06-04T11:30:11.106Z,1640
2016-06-04T11:31:11.328Z,1664
2016-06-04T11:32:11.330Z,1864
2016-06-04T11:33:11.364Z,1952
2016-06-04T11:34:11.430Z,1848
2016-06-04T11:35:11.464Z,1616
2016-06-04T11:36:11.466Z,1928
2016-06-04T11:37:11.499Z,2204
2016-06-04T11:38:11.644Z,2212
2016-06-04T11:39:11.584Z,2136
2016-06-04T11:40:11.633Z,2032
2016-06-04T11:41:13.276Z,2300
2016-06-04T11:42:12.263Z,2132
2016-06-04T11:43:11.797Z,1736
2016-06-04T11:44:11.801Z,1664
2016-06-04T11:45:11.818Z,1952
2016-06-04T11:46:11.820Z,2392
2016-06-04T11:47:11.981Z,2248
2016-06-04T11:48:11.984Z,1956
2016-06-04T11:49:12.001Z,2072
2016-06-04T11:50:12.020Z,3896
2016-06-04T11:51:12.023Z,3952
2016-06-04T11:52:12.025Z,3772
2016-06-04T11:53:11.918Z,3684
2016-06-04T11:54:12.203Z,3736
2016-06-04T11:55:12.142Z,3740
2016-06-04T11:56:12.316Z,3948
2016-06-04T11:57:12.242Z,4392
2016-06-04T11:58:12.228Z,4592
2016-06-04T11:59:12.122Z,4884
2016-06-04T12:00:12.312Z,5144
2016-06-04T12:01:12.377Z,5640
2016-06-04T12:02:12.380Z,5740
2016-06-04T12:03:12.413Z,5588
2016-06-04T12:04:12.448Z,5152
2016-06-04T12:05:12.482Z,4872
2016-06-04T12:06:12.516Z,4824
2016-06-04T12:07:12.549Z,4564
2016-06-04T12:08:12.600Z,2456
2016-06-04T12:09:12.633Z,2152
2016-06-04T12:10:12.652Z,1980
2016-06-04T12:11:12.543Z,1868
2016-06-04T12:12:12.766Z,1804
2016-06-04T12:13:12.769Z,2064
2016-06-04T12:14:12.803Z,4168
2016-06-04T12:15:12.852Z,2640
2016-06-04T12:16:12.871Z,2320
2016-06-04T12:17:12.904Z,3184
2016-06-04T12:18:12.939Z,4356
2016-06-04T12:19:12.973Z,4556
2016-06-04T12:20:13.007Z,4428
2016-06-04T12:21:13.040Z,4456
2016-06-04T12:22:13.075Z,4608
2016-06-04T12:23:13.327Z,4864
2016-06-04T12:24:13.173Z,5364
2016-06-04T12:25:13.033Z,6008
2016-06-04T12:26:13.223Z,6040
2016-06-04T12:27:13.260Z,5776
2016-06-04T12:28:13.684Z,5508
2016-06-04T12:29:13.562Z,5448
2016-06-04T12:30:13.377Z,5720
2016-06-04T12:31:13.395Z,5856
2016-06-04T12:32:13.430Z,5360
2016-06-04T12:33:13.463Z,3348
2016-06-04T12:34:13.497Z,4888
2016-06-04T12:35:13.547Z,4460
2016-06-04T12:36:13.422Z,3404
2016-06-04T12:37:13.615Z,3276
2016-06-04T12:38:13.649Z,3276
2016-06-04T12:39:13.683Z,3352
2016-06-04T12:40:13.716Z,5556
2016-06-04T12:41:13.860Z,5292
2016-06-04T12:42:14.035Z,3268
2016-06-04T12:43:14.271Z,2900
2016-06-04T12:44:13.915Z,2724
2016-06-04T12:45:13.917Z,2700
2016-06-04T12:46:13.952Z,2920
2016-06-04T12:47:14.063Z,3260
2016-06-04T12:48:14.113Z,4848
2016-06-04T12:49:14.162Z,5384
2016-06-04T12:50:14.165Z,5468
2016-06-04T12:51:14.153Z,5160
2016-06-04T12:52:14.170Z,4996
2016-06-04T12:53:14.189Z,5024
2016-06-04T12:54:14.158Z,5156
2016-06-04T12:55:14.257Z,5216
2016-06-04T12:56:14.054Z,5364
2016-06-04T12:57:14.903Z,5500
2016-06-04T12:58:14.372Z,5444
2016-06-04T12:59:14.406Z,5276
2016-06-04T13:00:14.299Z,5500
2016-06-04T13:01:14.552Z,5848
2016-06-04T13:02:16.089Z,5996
2016-06-04T13:03:14.729Z,6340
2016-06-04T13:04:14.716Z,5864
2016-06-04T13:05:14.734Z,5220
2016-06-04T13:06:14.737Z,3028
2016-06-04T13:07:16.211Z,3164
2016-06-04T13:08:14.899Z,5496
2016-06-04T13:09:14.901Z,5564
2016-06-04T13:10:14.904Z,5708
2016-06-04T13:11:14.766Z,5952
2016-06-04T13:12:16.850Z,6004
2016-06-04T13:13:15.006Z,6024
2016-06-04T13:14:15.368Z,5848
2016-06-04T13:15:14.995Z,6160
2016-06-04T13:16:15.030Z,6732
2016-06-04T13:17:15.313Z,6376
2016-06-04T13:18:15.098Z,5992
2016-06-04T13:19:15.163Z,3468
2016-06-04T13:20:15.181Z,3240
2016-06-04T13:21:15.198Z,3240
2016-06-04T13:22:17.532Z,6012
2016-06-04T13:23:15.282Z,6348
2016-06-04T13:24:15.332Z,6612
2016-06-04T13:25:15.366Z,6808
2016-06-04T13:26:15.291Z,6812
2016-06-04T13:27:19.281Z,4520
2016-06-04T13:28:15.484Z,6508
2016-06-04T13:29:15.502Z,6460
2016-06-04T13:30:15.551Z,6640
2016-06-04T13:31:15.586Z,6120
2016-06-04T13:32:18.059Z,6764
2016-06-04T13:33:15.653Z,6000
2016-06-04T13:34:15.703Z,4648
2016-06-04T13:35:15.737Z,5764
2016-06-04T13:36:15.771Z,6444
2016-06-04T13:37:17.964Z,6388
2016-06-04T13:38:15.839Z,6416
2016-06-04T13:39:15.889Z,6312
2016-06-04T13:40:15.922Z,6344
2016-06-04T13:41:16.002Z,6468
2016-06-04T13:42:18.368Z,6452
2016-06-04T13:43:16.071Z,6300
2016-06-04T13:44:16.089Z,6560
2016-06-04T13:45:15.967Z,6764
2016-06-04T13:46:16.141Z,6812
2016-06-04T13:47:18.600Z,6504
2016-06-04T13:48:16.085Z,6516